ユジノサハリンスク の空港の天気 - METARとTAF

ホムトヴォ空港(ユジノサハリンスク) ( UHSS / UUS ) - ロシア ユジノサハリンスク
飛行場実況気象(Metar)
観測時間03/29 07:00 +10 (03/28 21:00 UTC)
風向・風速北 2m/s
視程3000m
天気現象しゅう雪
全天の8割程度の雲 雲底高度 180m
全天を覆う雲 雲底高度 550m
気温-3℃
湿度100%
気圧1012hPa
METARUHSS 282100Z 01002MPS 3000 1400S R01/1400U SHSN BKN006 OVC018CB M03/M03 Q1012 R01/491031 NOSIG RMK MT OBSC QFE758/1011
過去の天気等 Google飛行場航空写真 Wunderground天気予報

過去48時間のMETAR

飛行場予報(TAF)
発表時間: 3/29 07:05 +10 (3/28 21:05 UTC)
予報対象時間: 29日7時 +10 ~ 30日13時 +10
風向・風速北北東 2m/s
視程1,400m
天気現象しゅう雪 もや
全天の8割程度の雲 雲底高度 120m
全天の8割程度の積乱雲 雲底高度 610m
全天を覆う雲 雲底高度 3,050m
29日7時 +10 ~ 29日11時 +10 に一時的に
視程400m
天気現象強いしゅう雪 氷霧
全天の8割程度の雲 雲底高度 60m
全天の8割程度の積乱雲 雲底高度 610m
29日11時 +10 ~ 29日13時 +10 に徐々に
視程10km以上
天気現象運行に影響にある天気現象が終了
全天の8割程度の積乱雲 雲底高度 610m
全天を覆う雲 雲底高度 3,050m
TAF AMD UHSS 282105Z 2821/3003 03002MPS 1400 SHSN BR BKN004 BKN020CB OVC100
TEMPO 2821/2901 0400 +SHSN FZFG BKN002 BKN020CB
BECMG 2901/2903 9999 NSW BKN020CB OVC100